Time;durP1;ratioP1;P1;durP2;ratioP2;P2;SDS_P1;SDS_P2;PMS_P1;PMS_P2;Temp;Humidity;BMP_temperature;BMP_pressure;BME280_temperature;BME280_humidity;BME280_pressure;Samples;Min_cycle;Max_cycle;Signal;HPM_P1;HPM_P2
2022/06/18 00:00:15;;;;;;;0.00;0.00;;;;;;;20.07;55.89;100652.47;5070519;28;20182;-73
2022/06/18 00:02:41;;;;;;;0.00;0.00;;;;;;;20.09;55.70;100661.22;5070410;28;20536;-72
2022/06/18 00:05:08;;;;;;;0.00;0.00;;;;;;;20.20;55.63;100659.44;5070059;28;20174;-73
2022/06/18 00:07:38;;;;;;;0.10;0.10;;;;;;;20.20;55.93;100655.84;5069720;28;20194;-73
2022/06/18 00:10:06;;;;;;;0.10;0.10;;;;;;;20.20;55.94;100656.66;5070074;28;20645;-73
2022/06/18 00:15:27;;;;;;;0.30;0.30;;;;;;;20.26;55.25;100646.06;5074408;28;20190;-73
2022/06/18 00:17:52;;;;;;;0.27;0.27;;;;;;;20.39;54.80;100647.44;5073338;28;20331;-72
2022/06/18 00:20:20;;;;;;;0.00;0.00;;;;;;;20.41;55.16;100635.97;5073857;28;20652;-72
2022/06/18 00:22:48;;;;;;;0.67;0.67;;;;;;;20.33;55.54;100634.25;5072554;28;20166;-72
2022/06/18 00:25:39;;;;;;;0.00;0.00;;;;;;;20.29;55.40;100637.00;5073970;28;20308;-73
2022/06/18 00:28:15;;;;;;;0.17;0.17;;;;;;;20.36;55.07;100636.28;5072579;28;20639;-72
2022/06/18 00:30:41;;;;;;;0.00;0.00;;;;;;;20.34;55.27;100633.09;5073649;28;20189;-72
2022/06/18 00:33:08;;;;;;;0.33;0.33;;;;;;;20.37;55.11;100624.00;5073698;28;20177;-73
2022/06/18 00:35:34;;;;;;;0.10;0.10;;;;;;;20.45;54.71;100625.75;5073558;28;20171;-72
2022/06/18 00:38:01;;;;;;;0.03;0.03;;;;;;;20.44;54.71;100626.94;5072803;28;20202;-73
2022/06/18 00:40:36;;;;;;;0.10;0.10;;;;;;;20.51;54.58;100624.25;5073529;28;20179;-74
2022/06/18 00:43:20;;;;;;;0.30;0.30;;;;;;;20.58;54.15;100629.91;5073760;28;20181;-73
2022/06/18 00:45:46;;;;;;;0.07;0.07;;;;;;;20.57;54.25;100621.97;5073235;28;20186;-72
2022/06/18 00:48:29;;;;;;;0.00;0.00;;;;;;;20.59;54.25;100617.63;5072523;28;20191;-74
2022/06/18 00:51:04;;;;;;;0.50;0.50;;;;;;;20.62;53.80;100611.34;5073512;28;20202;-72
2022/06/18 00:53:36;;;;;;;0.70;0.70;;;;;;;20.74;53.61;100618.63;5073282;28;20196;-73
2022/06/18 00:56:10;;;;;;;0.50;0.43;;;;;;;20.85;52.93;100616.00;5073191;28;20655;-73
2022/06/18 00:59:17;;;;;;;0.00;0.00;;;;;;;20.88;52.82;100612.47;5072428;28;20201;-73
2022/06/18 01:01:46;;;;;;;0.00;0.00;;;;;;;20.94;52.63;100613.72;5051527;28;20198;-73
2022/06/18 01:04:33;;;;;;;0.10;0.10;;;;;;;20.92;52.68;100613.31;5073007;28;20794;-72
2022/06/18 01:07:36;;;;;;;0.10;0.10;;;;;;;20.83;53.25;100601.69;5072806;28;20191;-73
2022/06/18 01:10:05;;;;;;;0.20;0.20;;;;;;;20.66;53.23;100600.25;5072883;28;20178;-72
2022/06/18 01:12:31;;;;;;;0.17;0.17;;;;;;;20.71;53.07;100597.19;5073001;28;20175;-73
2022/06/18 01:15:06;;;;;;;0.20;0.10;;;;;;;20.70;52.89;100590.84;5072992;28;20442;-72
2022/06/18 01:17:32;;;;;;;0.40;0.40;;;;;;;20.69;53.11;100602.31;5072088;28;20194;-73
2022/06/18 01:20:00;;;;;;;0.00;0.00;;;;;;;20.69;53.01;100589.22;5073077;28;20202;-72
2022/06/18 01:22:34;;;;;;;1.07;0.87;;;;;;;20.69;53.19;100589.22;5071147;28;20580;-72
2022/06/18 01:24:59;;;;;;;0.50;0.50;;;;;;;20.60;53.48;100585.94;5072786;28;20180;-73
2022/06/18 01:27:25;;;;;;;2.33;0.27;;;;;;;20.61;53.17;100592.28;5072201;28;20193;-73
2022/06/18 01:29:51;;;;;;;0.10;0.10;;;;;;;20.67;53.01;100587.97;5072279;28;20179;-73
2022/06/18 01:32:17;;;;;;;0.10;0.10;;;;;;;20.63;52.61;100579.59;5072945;28;20658;-72
2022/06/18 01:34:45;;;;;;;0.00;0.00;;;;;;;20.65;52.59;100574.47;5072653;28;20592;-72
2022/06/18 01:37:11;;;;;;;0.20;0.20;;;;;;;20.66;52.98;100572.50;5054071;28;20280;-72
2022/06/18 01:39:40;;;;;;;0.10;0.10;;;;;;;20.62;52.76;100578.00;5072127;28;20626;-72
2022/06/18 01:42:14;;;;;;;0.33;0.33;;;;;;;20.65;52.77;100570.91;5072319;28;20177;-72
2022/06/18 01:44:46;;;;;;;0.00;0.00;;;;;;;20.64;52.76;100567.31;5072628;28;20636;-72
2022/06/18 01:47:17;;;;;;;0.00;0.00;;;;;;;20.62;52.49;100574.44;5072134;28;20183;-73
2022/06/18 01:49:51;;;;;;;0.20;0.20;;;;;;;20.60;53.02;100565.69;5071851;28;20233;-73
2022/06/18 01:52:22;;;;;;;1.70;1.60;;;;;;;20.57;52.70;100563.66;5072241;28;20197;-73
2022/06/18 01:54:53;;;;;;;0.17;0.17;;;;;;;20.53;52.64;100560.03;5072111;28;20180;-73
2022/06/18 01:57:26;;;;;;;0.23;0.23;;;;;;;20.57;52.71;100549.78;5071843;28;20180;-72
2022/06/18 01:59:57;;;;;;;0.70;0.30;;;;;;;20.58;52.87;100551.38;5071774;28;20278;-72
2022/06/18 02:02:23;;;;;;;0.10;0.10;;;;;;;20.47;53.36;100548.47;5072122;28;20172;-73
2022/06/18 02:04:48;;;;;;;0.27;0.27;;;;;;;20.55;52.37;100546.59;5072452;28;20221;-72
2022/06/18 02:07:16;;;;;;;0.10;0.10;;;;;;;20.56;52.56;100542.63;5071520;28;20170;-73
2022/06/18 02:09:52;;;;;;;0.10;0.10;;;;;;;20.54;52.89;100537.44;5071603;28;20257;-73
2022/06/18 02:12:24;;;;;;;0.60;0.60;;;;;;;20.54;52.75;100537.44;5071879;28;20578;-72
2022/06/18 02:14:54;;;;;;;0.37;0.37;;;;;;;20.55;52.63;100527.97;5071824;28;20182;-73
2022/06/18 02:17:21;;;;;;;0.30;0.30;;;;;;;20.53;52.90;100521.97;5071356;28;20182;-73
2022/06/18 02:19:50;;;;;;;0.40;0.40;;;;;;;20.67;52.13;100519.38;5071125;28;20228;-72
2022/06/18 02:22:17;;;;;;;0.07;0.07;;;;;;;20.66;52.28;100526.09;5070343;28;20191;-73
2022/06/18 02:24:43;;;;;;;0.10;0.10;;;;;;;20.62;52.57;100522.50;5071547;28;20456;-73
2022/06/18 02:27:14;;;;;;;0.40;0.40;;;;;;;20.55;52.81;100521.63;5071278;28;20238;-73
2022/06/18 02:29:42;;;;;;;0.60;0.60;;;;;;;20.44;53.22;100513.94;5070559;28;20262;-72
2022/06/18 02:32:18;;;;;;;0.40;0.40;;;;;;;20.43;53.07;100511.53;5071424;28;20178;-73
2022/06/18 02:34:43;;;;;;;0.30;0.30;;;;;;;20.46;52.98;100513.56;5070519;28;20180;-73
2022/06/18 02:37:22;;;;;;;0.30;0.30;;;;;;;20.49;52.85;100516.38;5071002;28;20226;-72
2022/06/18 02:40:02;;;;;;;0.40;0.40;;;;;;;20.49;52.83;100513.59;5070908;28;20190;-72
2022/06/18 02:42:32;;;;;;;0.20;0.20;;;;;;;20.58;52.68;100505.00;5071243;28;20250;-72
2022/06/18 02:44:58;;;;;;;0.70;0.70;;;;;;;20.56;52.64;100509.31;5071110;28;20259;-72
2022/06/18 02:47:24;;;;;;;0.30;0.30;;;;;;;20.51;53.01;100513.22;5070580;28;20228;-74
2022/06/18 02:50:11;;;;;;;0.20;0.20;;;;;;;20.55;52.78;100510.50;5070813;28;20217;-73
2022/06/18 02:52:44;;;;;;;0.00;0.00;;;;;;;20.56;52.70;100512.91;5070824;28;20599;-72
2022/06/18 02:55:12;;;;;;;0.10;0.10;;;;;;;20.52;52.79;100506.47;5071108;28;20217;-73
2022/06/18 02:57:38;;;;;;;0.53;0.53;;;;;;;20.54;52.78;100512.44;5070181;28;20191;-72
2022/06/18 03:00:08;;;;;;;0.10;0.10;;;;;;;20.54;53.19;100506.09;5070943;28;20211;-72
2022/06/18 03:02:33;;;;;;;0.13;0.13;;;;;;;20.51;53.28;100493.78;5071305;28;20170;-73
2022/06/18 03:04:59;;;;;;;0.60;0.60;;;;;;;20.51;53.19;100507.66;5070753;28;20589;-73
2022/06/18 03:07:24;;;;;;;1.03;0.53;;;;;;;20.50;53.08;100506.06;5070248;28;20179;-73
2022/06/18 03:12:33;;;;;;;0.60;0.60;;;;;;;20.59;52.57;100503.00;5070870;28;20184;-73
2022/06/18 03:14:59;;;;;;;0.47;0.47;;;;;;;20.57;53.07;100499.81;5070797;28;20182;-72
2022/06/18 03:17:24;;;;;;;0.10;0.10;;;;;;;20.53;52.95;100499.75;5070085;28;20203;-74
2022/06/18 03:19:56;;;;;;;0.20;0.20;;;;;;;20.52;53.34;100509.25;5070325;28;20202;-72
2022/06/18 03:22:22;;;;;;;0.30;0.30;;;;;;;20.51;53.24;100507.66;5069785;28;20210;-73
2022/06/18 03:24:47;;;;;;;0.20;0.20;;;;;;;20.53;53.29;100508.09;5070627;28;20173;-73
2022/06/18 03:27:15;;;;;;;0.20;0.10;;;;;;;20.55;53.38;100500.19;5070229;28;20183;-73
2022/06/18 03:29:41;;;;;;;4.50;0.53;;;;;;;20.55;53.48;100497.44;5069876;28;20185;-73
2022/06/18 03:32:07;;;;;;;0.27;0.27;;;;;;;20.53;53.36;100502.53;5070436;28;20186;-72
2022/06/18 03:34:33;;;;;;;1.43;0.77;;;;;;;20.58;53.20;100487.53;5070338;28;20518;-72
2022/06/18 03:36:58;;;;;;;14.13;0.60;;;;;;;20.67;52.95;100491.59;5070394;28;20215;-73
2022/06/18 03:39:24;;;;;;;0.20;0.20;;;;;;;20.65;53.26;100491.19;5069788;28;20308;-73
2022/06/18 03:41:50;;;;;;;0.30;0.30;;;;;;;20.64;53.43;100492.38;5070379;28;20185;-73
2022/06/18 03:44:16;;;;;;;1.73;1.63;;;;;;;20.66;53.39;100487.22;5070221;28;20580;-72
2022/06/18 03:46:43;;;;;;;0.67;0.50;;;;;;;20.67;53.35;100488.81;5069729;28;20196;-72
2022/06/18 03:49:15;;;;;;;0.20;0.20;;;;;;;20.68;53.45;100490.41;5069856;28;20179;-72
2022/06/18 03:51:40;;;;;;;1.13;0.40;;;;;;;20.66;53.87;100494.75;5070404;28;20253;-72
2022/06/18 03:54:06;;;;;;;0.33;0.33;;;;;;;20.62;54.04;100491.16;5070228;28;20261;-72
2022/06/18 03:56:32;;;;;;;1.20;0.67;;;;;;;20.70;53.62;100487.28;5070022;28;20224;-73
2022/06/18 03:58:58;;;;;;;0.20;0.20;;;;;;;20.75;53.61;100484.16;5069648;28;20785;-73
2022/06/18 04:01:31;;;;;;;0.67;0.67;;;;;;;20.76;54.02;100488.53;5070120;28;20271;-73
2022/06/18 04:03:56;;;;;;;0.40;0.40;;;;;;;20.73;53.97;100487.31;5070157;28;20631;-72
2022/06/18 04:06:21;;;;;;;1.10;0.50;;;;;;;20.77;53.85;100488.16;5070042;28;20180;-73
2022/06/18 04:08:47;;;;;;;0.17;0.17;;;;;;;20.83;53.65;100487.81;5069357;28;20191;-72
2022/06/18 04:11:13;;;;;;;0.53;0.53;;;;;;;20.84;54.07;100487.44;5070021;28;20266;-72
2022/06/18 04:13:39;;;;;;;0.30;0.30;;;;;;;20.84;54.21;100489.44;5069965;28;20227;-73
2022/06/18 04:16:06;;;;;;;0.20;0.20;;;;;;;20.83;54.33;100490.59;5070235;28;20167;-73
2022/06/18 04:18:33;;;;;;;0.20;0.20;;;;;;;20.91;54.13;100489.50;5069199;28;20210;-72
2022/06/18 04:20:59;;;;;;;0.20;0.20;;;;;;;20.91;54.15;100495.84;5069960;28;20273;-72
2022/06/18 04:23:24;;;;;;;0.40;0.40;;;;;;;20.90;54.50;100488.69;5068959;28;20186;-72
2022/06/18 04:25:50;;;;;;;0.30;0.30;;;;;;;20.95;54.71;100493.09;5069908;28;20182;-73
2022/06/18 04:28:17;;;;;;;0.10;0.10;;;;;;;20.99;54.37;100500.31;5069240;28;20202;-73
2022/06/18 04:30:43;;;;;;;0.20;0.20;;;;;;;21.01;54.85;100495.19;5070153;28;20187;-73
2022/06/18 04:33:09;;;;;;;0.30;0.30;;;;;;;21.07;54.78;100501.19;5069838;28;20177;-73
2022/06/18 04:35:34;;;;;;;0.20;0.20;;;;;;;21.12;54.26;100505.56;5069836;28;20216;-72
2022/06/18 04:38:00;;;;;;;0.20;0.20;;;;;;;21.15;54.22;100500.09;5068945;28;20245;-72
2022/06/18 04:40:37;;;;;;;0.13;0.13;;;;;;;21.18;54.66;100498.50;5070140;28;20178;-72
2022/06/18 04:43:06;;;;;;;0.63;0.40;;;;;;;21.18;55.05;100502.09;5069910;28;20182;-72
2022/06/18 04:45:32;;;;;;;0.10;0.10;;;;;;;21.20;55.12;100494.16;5069796;28;20223;-73
2022/06/18 04:47:58;;;;;;;0.53;0.53;;;;;;;21.25;54.90;100501.38;5068984;28;20274;-72
2022/06/18 04:50:30;;;;;;;0.43;0.43;;;;;;;21.31;54.95;100503.44;5069683;28;20594;-73
2022/06/18 04:52:55;;;;;;;0.43;0.43;;;;;;;21.39;54.76;100501.50;5069678;28;20175;-72
2022/06/18 04:55:21;;;;;;;0.10;0.10;;;;;;;21.43;54.62;100507.13;5069958;28;20192;-73
2022/06/18 04:57:47;;;;;;;0.10;0.10;;;;;;;21.50;54.25;100502.41;5070164;28;20238;-73
2022/06/18 05:00:12;;;;;;;0.10;0.10;;;;;;;;;;5073150;28;20272;-73
2022/06/18 05:02:38;;;;;;;0.43;0.20;;;;;;;;;;5074043;28;20181;-72
2022/06/18 05:05:07;;;;;;;0.00;0.00;;;;;;;21.56;54.86;100506.44;5073592;28;20188;-72
2022/06/18 05:07:33;;;;;;;2.00;0.60;;;;;;;21.58;54.99;100506.88;5072416;28;20170;-74
2022/06/18 05:09:58;;;;;;;0.43;0.43;;;;;;;21.59;54.56;100502.09;5073197;28;20182;-72
2022/06/18 05:12:23;;;;;;;0.50;0.50;;;;;;;21.62;54.85;100496.56;5073074;28;20167;-73
2022/06/18 05:14:49;;;;;;;8.30;0.77;;;;;;;21.66;54.85;100505.72;5073054;28;20182;-73
2022/06/18 05:17:21;;;;;;;0.07;0.07;;;;;;;21.67;54.85;100503.75;5073177;28;20255;-72
2022/06/18 05:19:47;;;;;;;0.10;0.10;;;;;;;21.73;54.88;100504.19;5072518;28;20176;-73
2022/06/18 05:22:13;;;;;;;0.47;0.33;;;;;;;21.80;54.95;100499.47;5072149;28;20553;-74
2022/06/18 05:24:38;;;;;;;1.00;0.90;;;;;;;21.81;54.79;100503.06;5072700;28;20170;-73
2022/06/18 05:27:04;;;;;;;0.30;0.30;;;;;;;21.83;54.99;100503.47;5072392;28;20177;-72
2022/06/18 05:29:30;;;;;;;0.23;0.20;;;;;;;21.89;55.17;100511.06;5072191;28;20174;-72
2022/06/18 05:31:55;;;;;;;0.23;0.23;;;;;;;21.92;55.36;100503.94;5072638;28;20178;-72
2022/06/18 05:34:21;;;;;;;0.00;0.00;;;;;;;21.95;55.41;100501.16;5072527;28;20172;-72
2022/06/18 05:36:47;;;;;;;0.00;0.00;;;;;;;21.97;55.49;100506.34;5072281;28;20171;-73
2022/06/18 05:39:17;;;;;;;0.10;0.10;;;;;;;22.01;55.48;100495.25;5072178;28;20210;-72
2022/06/18 05:41:43;;;;;;;0.10;0.10;;;;;;;22.02;55.18;100491.28;5072532;28;20176;-73
2022/06/18 05:44:08;;;;;;;0.23;0.23;;;;;;;22.04;55.44;100486.94;5072316;28;20181;-72
2022/06/18 05:46:33;;;;;;;0.00;0.00;;;;;;;22.07;55.93;100491.75;5071880;28;20183;-73
2022/06/18 05:49:02;;;;;;;0.40;0.40;;;;;;;22.12;56.07;100487.78;5072011;28;20279;-73
2022/06/18 05:51:27;;;;;;;10.07;0.83;;;;;;;22.15;55.19;100490.59;5072149;28;20289;-72
2022/06/18 05:53:52;;;;;;;0.87;0.87;;;;;;;22.20;55.84;100481.88;5072318;28;20177;-72
2022/06/18 05:56:18;;;;;;;0.70;0.70;;;;;;;22.22;55.46;100485.06;5072134;28;20700;-72
2022/06/18 05:58:43;;;;;;;0.97;0.97;;;;;;;22.29;56.10;100475.97;5071324;28;20202;-73
2022/06/18 06:01:09;;;;;;;0.20;0.20;;;;;;;22.33;55.79;100482.34;5072062;28;20266;-73
2022/06/18 06:03:34;;;;;;;0.00;0.00;;;;;;;22.39;55.65;100478.00;5071954;28;20209;-73
2022/06/18 06:05:59;;;;;;;0.27;0.27;;;;;;;22.48;55.62;100477.63;5072305;28;20177;-72
2022/06/18 06:08:26;;;;;;;0.20;0.20;;;;;;;22.58;56.53;100473.31;5071077;28;20719;-73
2022/06/18 06:13:35;;;;;;;0.40;0.40;;;;;;;22.65;55.75;100484.47;5072053;28;20275;-72
2022/06/18 06:16:01;;;;;;;0.37;0.37;;;;;;;22.74;55.84;100482.13;5071692;28;20626;-74
2022/06/18 06:18:28;;;;;;;0.10;0.10;;;;;;;22.77;55.99;100482.13;5070969;28;20206;-73
2022/06/18 06:20:55;;;;;;;0.43;0.43;;;;;;;22.87;56.42;100479.81;5071741;28;20197;-73
2022/06/18 06:23:20;;;;;;;0.67;0.43;;;;;;;22.90;55.72;100482.59;5070800;28;20520;-72
2022/06/18 06:25:48;;;;;;;0.00;0.00;;;;;;;22.93;55.63;100476.22;5071558;28;20247;-72
2022/06/18 06:28:23;;;;;;;0.30;0.30;;;;;;;22.96;56.18;100475.44;5070802;28;20178;-72
2022/06/18 06:30:51;;;;;;;0.60;0.60;;;;;;;22.99;55.62;100468.25;5071530;28;20173;-72
2022/06/18 06:33:16;;;;;;;0.47;0.47;;;;;;;23.04;56.29;100471.47;5071490;28;20256;-73
2022/06/18 06:35:45;;;;;;;2.30;0.60;;;;;;;23.06;56.76;100469.09;5071291;28;20265;-73
2022/06/18 06:38:11;;;;;;;0.37;0.37;;;;;;;23.12;56.11;100466.69;5070545;28;20238;-73
2022/06/18 06:40:37;;;;;;;1.23;0.90;;;;;;;23.13;55.97;100465.50;5071238;28;20171;-72
2022/06/18 06:43:03;;;;;;;0.33;0.20;;;;;;;23.20;57.03;100454.38;5071097;28;20265;-73
2022/06/18 06:45:31;;;;;;;0.27;0.27;;;;;;;23.24;56.67;100455.16;5071158;28;20235;-73
2022/06/18 06:47:57;;;;;;;1.17;1.07;;;;;;;23.24;56.47;100457.16;5070259;28;20182;-72
2022/06/18 06:50:25;;;;;;;0.97;0.97;;;;;;;23.27;56.90;100456.34;5071496;28;20177;-73
2022/06/18 06:52:51;;;;;;;0.97;0.97;;;;;;;23.31;57.01;100465.53;5070974;28;20181;-72
2022/06/18 06:58:06;;;;;;;1.23;1.13;;;;;;;23.45;57.38;100462.75;5070372;28;20233;-74
2022/06/18 07:00:33;;;;;;;0.20;0.20;;;;;;;23.51;57.76;100465.94;5070897;28;20622;-73
2022/06/18 07:02:59;;;;;;;3.17;0.90;;;;;;;23.57;57.28;100458.75;5070711;28;20220;-73
2022/06/18 07:05:24;;;;;;;5.20;1.03;;;;;;;23.63;57.07;100463.56;5070715;28;20178;-73
2022/06/18 07:07:50;;;;;;;1.10;0.87;;;;;;;23.74;56.77;100463.56;5070002;28;20175;-73
2022/06/18 07:10:16;;;;;;;0.40;0.40;;;;;;;23.86;57.29;100462.31;5070879;28;20166;-72
2022/06/18 07:12:42;;;;;;;1.00;0.93;;;;;;;23.88;56.46;100462.75;5070713;28;20175;-73
2022/06/18 07:15:08;;;;;;;1.10;1.03;;;;;;;23.93;56.96;100459.53;5070675;28;20614;-73
2022/06/18 07:17:34;;;;;;;2.17;1.97;;;;;;;23.97;57.09;100454.75;5069722;28;20272;-73
2022/06/18 07:19:59;;;;;;;1.43;1.37;;;;;;;24.06;56.66;100452.34;5070247;28;20544;-73
2022/06/18 07:22:25;;;;;;;1.93;1.43;;;;;;;24.16;56.82;100461.84;5069710;28;20175;-73
2022/06/18 07:24:51;;;;;;;11.30;1.33;;;;;;;24.25;56.29;100456.66;5070783;28;20209;-73
2022/06/18 07:27:17;;;;;;;1.93;1.50;;;;;;;24.21;55.70;100459.47;5070106;28;20269;-73
2022/06/18 07:29:42;;;;;;;0.70;0.70;;;;;;;24.21;55.26;100461.47;5069764;28;20171;-73
2022/06/18 07:32:12;;;;;;;1.30;1.20;;;;;;;24.27;56.09;100463.41;5070448;28;20626;-72
2022/06/18 07:34:37;;;;;;;0.50;0.50;;;;;;;24.34;56.40;100465.44;5070568;28;20163;-72
2022/06/18 07:37:03;;;;;;;0.57;0.40;;;;;;;24.42;56.21;100463.41;5069947;28;20538;-73
2022/06/18 07:39:29;;;;;;;0.37;0.37;;;;;;;24.55;56.49;100464.53;5070119;28;20287;-73
2022/06/18 07:41:55;;;;;;;0.70;0.70;;;;;;;24.65;56.28;100460.91;5070360;28;20534;-73
2022/06/18 07:44:22;;;;;;;0.90;0.90;;;;;;;24.68;55.78;100456.50;5070306;28;20418;-73
2022/06/18 07:46:48;;;;;;;5.03;1.27;;;;;;;24.78;56.01;100458.44;5070106;28;20190;-73
2022/06/18 07:49:14;;;;;;;0.20;0.20;;;;;;;24.83;55.75;100447.63;5069859;28;20193;-73
2022/06/18 07:51:40;;;;;;;1.90;1.80;;;;;;;24.94;55.79;100455.97;5070208;28;20212;-73
2022/06/18 07:54:06;;;;;;;1.67;1.57;;;;;;;24.91;55.25;100451.19;5070236;28;20267;-73
2022/06/18 07:56:32;;;;;;;1.67;1.57;;;;;;;24.89;55.20;100454.41;5069987;28;20265;-74
2022/06/18 07:58:57;;;;;;;0.50;0.50;;;;;;;24.95;55.85;100453.97;5069534;28;20201;-73
2022/06/18 08:01:23;;;;;;;0.87;0.87;;;;;;;25.07;55.43;100451.50;5070158;28;20300;-73
2022/06/18 08:03:48;;;;;;;2.90;2.70;;;;;;;25.20;55.79;100451.81;5070237;28;20319;-73
2022/06/18 08:06:13;;;;;;;1.77;1.77;;;;;;;25.32;55.57;100445.75;5069953;28;20636;-73
2022/06/18 08:08:39;;;;;;;1.70;1.60;;;;;;;25.41;54.77;100450.84;5069492;28;20175;-73
2022/06/18 08:11:09;;;;;;;6.67;1.93;;;;;;;25.47;55.34;100438.81;5070059;28;20645;-73
2022/06/18 08:13:35;;;;;;;0.70;0.70;;;;;;;25.60;55.15;100446.66;5069972;28;20178;-73
2022/06/18 08:16:01;;;;;;;5.70;2.40;;;;;;;25.66;55.05;100443.03;5069952;28;20178;-73
2022/06/18 08:18:26;;;;;;;0.60;0.60;;;;;;;25.74;55.64;100449.38;5069249;28;20312;-73
2022/06/18 08:20:52;;;;;;;11.63;1.70;;;;;;;25.73;54.29;100440.19;5070031;28;20167;-73
2022/06/18 08:23:17;;;;;;;0.97;0.83;;;;;;;25.72;54.59;100440.59;5069085;28;20162;-72
2022/06/18 08:25:43;;;;;;;3.50;1.30;;;;;;;25.87;54.69;100430.84;5069861;28;20182;-74
2022/06/18 08:28:09;;;;;;;2.10;1.90;;;;;;;25.90;53.99;100432.84;5069222;28;20260;-73
2022/06/18 08:30:36;;;;;;;1.67;1.57;;;;;;;26.00;54.32;100433.91;5069885;28;20181;-73
2022/06/18 08:33:01;;;;;;;6.53;1.23;;;;;;;26.14;54.54;100442.16;5071721;28;20193;-73
2022/06/18 08:35:27;;;;;;;1.67;1.57;;;;;;;26.07;53.97;100425.44;5073564;28;20623;-73
2022/06/18 08:37:53;;;;;;;2.20;0.53;;;;;;;26.10;54.31;100425.38;5072813;28;20206;-73
2022/06/18 08:40:56;;;;;;;1.60;1.50;;;;;;;26.26;54.92;100432.41;5073593;28;20179;-73
2022/06/18 08:43:57;;;;;;;2.93;2.10;;;;;;;26.29;54.15;100437.16;5073545;28;20178;-73
2022/06/18 08:47:03;;;;;;;1.20;1.17;;;;;;;26.44;53.43;100433.00;5073316;28;20184;-73
2022/06/18 08:49:34;;;;;;;0.57;0.57;;;;;;;26.50;52.97;100439.75;5072993;28;20175;-73
2022/06/18 08:52:03;;;;;;;2.00;0.93;;;;;;;26.57;53.52;100442.44;5055519;28;20186;-73
2022/06/18 08:54:38;;;;;;;1.50;1.37;;;;;;;26.58;54.06;100444.03;5073223;28;20179;-73
2022/06/18 08:57:30;;;;;;;0.07;0.07;;;;;;;26.69;55.17;100432.69;5073145;28;20158;-73
2022/06/18 09:00:12;;;;;;;0.03;0.03;;;;;;;26.96;53.24;100446.72;5073296;28;20183;-74
2022/06/18 09:02:55;;;;;;;0.53;0.53;;;;;;;27.07;53.51;100436.16;5073209;28;20171;-73
2022/06/18 09:05:34;;;;;;;0.47;0.47;;;;;;;27.18;53.68;100430.34;5073014;28;20175;-73
2022/06/18 09:08:02;;;;;;;0.60;0.60;;;;;;;27.16;53.47;100438.41;5054492;28;20539;-74
2022/06/18 09:10:36;;;;;;;1.30;1.30;;;;;;;27.15;53.65;100429.19;5073201;28;20217;-73
2022/06/18 09:13:07;;;;;;;0.10;0.10;;;;;;;27.28;53.16;100427.38;5072971;28;20673;-73
2022/06/18 09:15:41;;;;;;;4.27;1.50;;;;;;;27.45;53.53;100421.91;5072888;28;20178;-73
2022/06/18 09:18:18;;;;;;;1.53;1.03;;;;;;;27.59;51.90;100432.88;5072554;28;20199;-73
2022/06/18 09:20:54;;;;;;;1.00;1.00;;;;;;;27.70;51.60;100436.31;5072341;28;20179;-74
2022/06/18 09:23:33;;;;;;;4.90;2.00;;;;;;;27.65;51.18;100428.41;5070935;28;20240;-74
2022/06/18 09:26:01;;;;;;;1.50;1.40;;;;;;;27.54;51.64;100424.97;5071046;28;20536;-73
2022/06/18 09:28:28;;;;;;;0.50;0.50;;;;;;;27.66;51.32;100437.63;5070156;28;20182;-73
2022/06/18 09:31:11;;;;;;;0.20;0.20;;;;;;;27.79;51.50;100433.75;5072377;28;20635;-73
2022/06/18 09:33:42;;;;;;;1.37;1.27;;;;;;;27.78;51.12;100432.16;5072489;28;20639;-73
2022/06/18 09:36:12;;;;;;;0.73;0.73;;;;;;;27.91;52.56;100428.72;5070902;28;20179;-73
2022/06/18 09:38:47;;;;;;;2.80;2.27;;;;;;;27.96;50.81;100434.63;5071722;28;20610;-73
2022/06/18 09:41:38;;;;;;;6.70;2.20;;;;;;;27.98;51.15;100432.19;5072535;28;20207;-73
2022/06/18 09:44:13;;;;;;;8.23;4.07;;;;;;;28.09;51.02;100434.78;5072359;28;20168;-73
2022/06/18 09:46:56;;;;;;;9.77;2.00;;;;;;;28.28;51.65;100438.84;5072101;28;20187;-74
2022/06/18 09:49:21;;;;;;;0.67;0.67;;;;;;;28.15;51.04;100430.25;5071900;28;20259;-73
2022/06/18 09:52:06;;;;;;;0.17;0.17;;;;;;;28.20;50.92;100429.72;5072651;28;20256;-74
2022/06/18 09:54:38;;;;;;;1.73;1.63;;;;;;;28.38;51.46;100427.41;5072275;28;20747;-73
2022/06/18 09:57:05;;;;;;;1.30;1.20;;;;;;;28.45;50.59;100426.44;5072284;28;20178;-74
2022/06/18 09:59:39;;;;;;;0.23;0.23;;;;;;;28.52;50.78;100414.25;5071553;28;20212;-73
2022/06/18 10:02:27;;;;;;;0.37;0.37;;;;;;;28.88;51.27;100420.69;5072123;28;20225;-73
2022/06/18 10:07:43;;;;;;;1.70;1.60;;;;;;;29.12;47.14;100417.72;5071320;28;20176;-73
2022/06/18 10:10:15;;;;;;;1.50;0.70;;;;;;;29.05;47.48;100424.28;5071939;28;20482;-73
2022/06/18 10:12:44;;;;;;;1.17;1.07;;;;;;;29.09;47.51;100438.31;5054141;28;20605;-73
2022/06/18 10:15:13;;;;;;;0.37;0.37;;;;;;;29.06;47.93;100422.28;5071849;28;20227;-73
2022/06/18 10:17:47;;;;;;;11.27;1.87;;;;;;;29.08;47.74;100419.81;5070962;28;20580;-73
2022/06/18 10:20:39;;;;;;;3.90;1.63;;;;;;;29.07;48.25;100421.84;5053618;28;20270;-73
2022/06/18 10:23:55;;;;;;;5.60;2.10;;;;;;;28.95;48.71;100416.91;5053845;28;20175;-73
2022/06/18 10:26:38;;;;;;;6.20;1.83;;;;;;;29.00;48.70;100408.75;4970391;28;20236;-74
2022/06/18 10:29:15;;;;;;;0.53;0.53;;;;;;;29.11;48.76;100414.13;5071167;28;20171;-73
2022/06/18 10:31:49;;;;;;;3.57;1.10;;;;;;;29.40;49.91;100410.59;5071551;28;20538;-74
2022/06/18 10:34:23;;;;;;;0.53;0.53;;;;;;;29.51;46.87;100411.09;5071363;28;20216;-74
2022/06/18 10:37:04;;;;;;;4.83;1.30;;;;;;;29.45;47.06;100408.03;5071203;28;20670;-74
2022/06/18 10:40:20;;;;;;;0.70;0.70;;;;;;;29.60;48.73;100400.81;5070731;28;20303;-74
2022/06/18 10:43:29;;;;;;;0.57;0.57;;;;;;;29.68;46.14;100401.41;4981720;28;20203;-73
2022/06/18 10:46:07;;;;;;;19.23;1.50;;;;;;;29.63;46.91;100393.50;5071349;28;20270;-74
2022/06/18 10:48:34;;;;;;;5.07;1.80;;;;;;;29.70;46.83;100389.72;5070329;28;20196;-74
2022/06/18 10:51:01;;;;;;;4.50;1.40;;;;;;;29.73;45.85;100391.63;5071025;28;20368;-74
2022/06/18 10:53:48;;;;;;;2.70;1.63;;;;;;;29.72;46.07;100399.28;5071148;28;20656;-74
2022/06/18 10:56:24;;;;;;;1.63;1.37;;;;;;;29.74;45.16;100396.03;5069593;28;20193;-74
2022/06/18 10:58:53;;;;;;;1.60;1.50;;;;;;;29.89;46.33;100395.19;5070248;28;20224;-73
2022/06/18 11:01:30;;;;;;;0.53;0.53;;;;;;;30.08;45.88;100393.47;5071036;28;20216;-74
2022/06/18 11:03:59;;;;;;;1.00;0.93;;;;;;;29.97;46.19;100395.78;5070860;28;20166;-74
2022/06/18 11:06:25;;;;;;;2.10;1.90;;;;;;;30.00;45.18;100391.28;5070754;28;20190;-74
2022/06/18 11:08:54;;;;;;;0.10;0.10;;;;;;;30.02;46.36;100386.78;5070195;28;20178;-74
2022/06/18 11:11:25;;;;;;;0.80;0.80;;;;;;;30.13;44.66;100387.28;5071890;28;20183;-74
2022/06/18 11:13:50;;;;;;;8.57;1.60;;;;;;;30.08;44.12;100390.66;5070605;28;20721;-73
2022/06/18 11:16:27;;;;;;;4.37;0.93;;;;;;;30.09;44.85;100388.63;5070612;28;20239;-73
2022/06/18 11:19:02;;;;;;;2.70;2.17;;;;;;;30.08;44.93;100378.59;5069990;28;20640;-75
2022/06/18 11:21:39;;;;;;;1.27;1.20;;;;;;;30.10;44.91;100384.59;5070718;28;20252;-74
2022/06/18 11:24:10;;;;;;;2.57;2.37;;;;;;;30.21;44.12;100385.84;5070675;28;20261;-74
2022/06/18 11:26:40;;;;;;;1.30;1.20;;;;;;;30.32;44.63;100385.53;5070111;28;20167;-74
2022/06/18 11:29:30;;;;;;;0.63;0.63;;;;;;;30.37;44.12;100372.88;5070202;28;20163;-73
2022/06/18 11:31:58;;;;;;;0.93;0.93;;;;;;;30.33;44.04;100380.66;5070657;28;20174;-73
2022/06/18 11:34:36;;;;;;;2.90;1.90;;;;;;;30.43;43.90;100376.75;5068889;28;20717;-74
2022/06/18 11:37:21;;;;;;;1.00;0.97;;;;;;;30.35;44.58;100378.19;5070191;28;20175;-74
2022/06/18 11:39:57;;;;;;;0.53;0.53;;;;;;;30.52;44.90;100376.84;5069908;28;20681;-73
2022/06/18 11:42:36;;;;;;;1.33;1.27;;;;;;;30.61;42.90;100374.16;5070431;28;20185;-73
2022/06/18 11:45:01;;;;;;;0.83;0.83;;;;;;;30.55;43.37;100373.16;5070270;28;20174;-73
2022/06/18 11:47:39;;;;;;;0.30;0.30;;;;;;;30.66;43.19;100370.78;5070044;28;20183;-74
2022/06/18 11:50:14;;;;;;;0.40;0.40;;;;;;;30.79;43.71;100368.75;5070338;28;20640;-74
2022/06/18 11:53:05;;;;;;;2.23;1.47;;;;;;;30.82;42.33;100371.94;5070364;28;20170;-74
2022/06/18 11:55:35;;;;;;;8.73;1.67;;;;;;;30.89;42.25;100361.19;5019331;28;20198;-74